sensor_id;sensor_type;location;lat;lon;timestamp;pressure;altitude;pressure_sealevel;temperature;humidity
57668;BME280;43499;52.366;12.912;2023-05-10T00:00:18;100849.03;;;11.83;59.73
57668;BME280;43499;52.366;12.912;2023-05-10T00:01:19;100848.88;;;11.82;59.92
57668;BME280;43499;52.366;12.912;2023-05-10T00:02:20;100842.47;;;11.78;60.73
57668;BME280;43499;52.366;12.912;2023-05-10T00:03:21;100825.03;;;11.68;58.92
57668;BME280;43499;52.366;12.912;2023-05-10T00:04:22;100835.25;;;11.76;59.57
57668;BME280;43499;52.366;12.912;2023-05-10T00:05:23;100834.09;;;11.72;59.52
57668;BME280;43499;52.366;12.912;2023-05-10T00:06:24;100837.63;;;11.72;61.04
57668;BME280;43499;52.366;12.912;2023-05-10T00:07:25;100826.75;;;11.68;60.02
57668;BME280;43499;52.366;12.912;2023-05-10T00:08:26;100832.00;;;11.68;59.30
57668;BME280;43499;52.366;12.912;2023-05-10T00:09:27;100840.53;;;11.76;59.88
57668;BME280;43499;52.366;12.912;2023-05-10T00:10:28;100838.69;;;11.75;60.42
57668;BME280;43499;52.366;12.912;2023-05-10T00:11:29;100835.69;;;11.70;60.32
57668;BME280;43499;52.366;12.912;2023-05-10T00:12:30;100830.06;;;11.65;60.06
57668;BME280;43499;52.366;12.912;2023-05-10T00:13:31;100839.00;;;11.67;60.31
57668;BME280;43499;52.366;12.912;2023-05-10T00:14:32;100829.03;;;11.63;60.76
57668;BME280;43499;52.366;12.912;2023-05-10T00:15:34;100834.28;;;11.63;60.26
57668;BME280;43499;52.366;12.912;2023-05-10T00:16:35;100837.97;;;11.65;60.16
57668;BME280;43499;52.366;12.912;2023-05-10T00:17:36;100813.66;;;11.57;61.09
57668;BME280;43499;52.366;12.912;2023-05-10T00:18:37;100834.28;;;11.63;60.92
57668;BME280;43499;52.366;12.912;2023-05-10T00:19:38;100832.56;;;11.64;61.14
57668;BME280;43499;52.366;12.912;2023-05-10T00:20:39;100828.91;;;11.62;60.68
57668;BME280;43499;52.366;12.912;2023-05-10T00:21:40;100831.56;;;11.62;60.55
57668;BME280;43499;52.366;12.912;2023-05-10T00:22:41;100813.66;;;11.57;61.18
57668;BME280;43499;52.366;12.912;2023-05-10T00:23:42;100830.50;;;11.60;61.78
57668;BME280;43499;52.366;12.912;2023-05-10T00:24:43;100820.88;;;11.60;61.76
57668;BME280;43499;52.366;12.912;2023-05-10T00:25:44;100811.13;;;11.47;60.69
57668;BME280;43499;52.366;12.912;2023-05-10T00:26:45;100810.19;;;11.47;61.19
57668;BME280;43499;52.366;12.912;2023-05-10T00:27:47;100820.53;;;11.55;61.27
57668;BME280;43499;52.366;12.912;2023-05-10T00:28:47;100799.97;;;11.39;61.64
57668;BME280;43499;52.366;12.912;2023-05-10T00:29:49;100818.31;;;11.50;62.31
57668;BME280;43499;52.366;12.912;2023-05-10T00:30:50;100801.66;;;11.39;61.65
57668;BME280;43499;52.366;12.912;2023-05-10T00:31:51;100821.75;;;11.49;60.39
57668;BME280;43499;52.366;12.912;2023-05-10T00:32:52;100808.22;;;11.44;61.53
57668;BME280;43499;52.366;12.912;2023-05-10T00:33:53;100783.31;;;11.29;62.48
57668;BME280;43499;52.366;12.912;2023-05-10T00:34:54;100809.72;;;11.40;61.41
57668;BME280;43499;52.366;12.912;2023-05-10T00:35:55;100790.66;;;11.33;62.46
57668;BME280;43499;52.366;12.912;2023-05-10T00:36:56;100803.16;;;11.35;61.50
57668;BME280;43499;52.366;12.912;2023-05-10T00:37:57;100823.13;;;11.44;61.29
57668;BME280;43499;52.366;12.912;2023-05-10T00:38:58;100809.09;;;11.33;61.52
57668;BME280;43499;52.366;12.912;2023-05-10T00:39:59;100790.22;;;11.26;61.50
57668;BME280;43499;52.366;12.912;2023-05-10T00:41:01;100808.56;;;11.37;61.83
57668;BME280;43499;52.366;12.912;2023-05-10T00:42:05;100817.72;;;11.42;62.02
57668;BME280;43499;52.366;12.912;2023-05-10T00:43:06;100819.44;;;11.41;62.19
57668;BME280;43499;52.366;12.912;2023-05-10T00:44:07;100803.56;;;11.30;61.75
57668;BME280;43499;52.366;12.912;2023-05-10T00:45:09;100802.78;;;11.31;61.69
57668;BME280;43499;52.366;12.912;2023-05-10T00:46:10;100805.56;;;11.32;62.50
57668;BME280;43499;52.366;12.912;2023-05-10T00:47:12;100795.47;;;11.26;62.11
57668;BME280;43499;52.366;12.912;2023-05-10T00:48:13;100822.72;;;11.39;63.13
57668;BME280;43499;52.366;12.912;2023-05-10T00:49:15;100764.50;;;11.12;62.46
57668;BME280;43499;52.366;12.912;2023-05-10T00:50:16;100801.53;;;11.25;62.20
57668;BME280;43499;52.366;12.912;2023-05-10T00:51:18;100812.63;;;11.33;62.87
57668;BME280;43499;52.366;12.912;2023-05-10T00:52:19;100814.25;;;11.31;63.22
57668;BME280;43499;52.366;12.912;2023-05-10T00:53:20;100810.69;;;11.31;62.08
57668;BME280;43499;52.366;12.912;2023-05-10T00:54:21;100808.47;;;11.25;61.71
57668;BME280;43499;52.366;12.912;2023-05-10T00:55:23;100797.22;;;11.16;62.26
57668;BME280;43499;52.366;12.912;2023-05-10T00:56:25;100809.53;;;11.27;62.87
57668;BME280;43499;52.366;12.912;2023-05-10T00:57:26;100811.25;;;11.26;62.75
57668;BME280;43499;52.366;12.912;2023-05-10T00:58:27;100789.22;;;11.14;63.13
57668;BME280;43499;52.366;12.912;2023-05-10T00:59:29;100805.47;;;11.20;62.80
57668;BME280;43499;52.366;12.912;2023-05-10T01:00:32;100806.41;;;11.21;62.37
57668;BME280;43499;52.366;12.912;2023-05-10T01:01:34;100806.53;;;11.22;62.41
57668;BME280;43499;52.366;12.912;2023-05-10T01:02:36;100787.94;;;11.09;62.09
57668;BME280;43499;52.366;12.912;2023-05-10T01:03:37;100790.81;;;11.12;63.26
57668;BME280;43499;52.366;12.912;2023-05-10T01:04:38;100794.22;;;11.11;62.02
57668;BME280;43499;52.366;12.912;2023-05-10T01:05:40;100788.72;;;11.08;62.41
57668;BME280;43499;52.366;12.912;2023-05-10T01:06:41;100795.03;;;11.10;62.23
57668;BME280;43499;52.366;12.912;2023-05-10T01:07:43;100794.13;;;11.09;62.23
57668;BME280;43499;52.366;12.912;2023-05-10T01:08:44;100807.75;;;11.16;62.62
57668;BME280;43499;52.366;12.912;2023-05-10T01:09:46;100763.59;;;10.89;62.65
57668;BME280;43499;52.366;12.912;2023-05-10T01:10:47;100802.22;;;11.13;62.33
57668;BME280;43499;52.366;12.912;2023-05-10T01:11:49;100792.03;;;11.05;63.00
57668;BME280;43499;52.366;12.912;2023-05-10T01:12:51;100793.06;;;11.07;62.89
57668;BME280;43499;52.366;12.912;2023-05-10T01:13:55;100818.59;;;11.08;61.74
57668;BME280;43499;52.366;12.912;2023-05-10T01:14:57;100799.13;;;11.06;62.74
57668;BME280;43499;52.366;12.912;2023-05-10T01:15:59;100791.91;;;11.04;62.82
57668;BME280;43499;52.366;12.912;2023-05-10T01:17:03;100793.72;;;11.05;63.07
57668;BME280;43499;52.366;12.912;2023-05-10T01:18:05;100785.00;;;10.94;63.32
57668;BME280;43499;52.366;12.912;2023-05-10T01:19:12;100792.88;;;10.94;63.01
57668;BME280;43499;52.366;12.912;2023-05-10T01:20:15;100791.94;;;10.93;62.86
57668;BME280;43499;52.366;12.912;2023-05-10T01:21:27;100805.72;;;11.01;63.25
57668;BME280;43499;52.366;12.912;2023-05-10T01:23:59;100801.25;;;11.00;62.91
57668;BME280;43499;52.366;12.912;2023-05-10T01:25:31;100804.19;;;10.93;63.21
57668;BME280;43499;52.366;12.912;2023-05-10T01:27:05;100787.38;;;10.91;63.61
57668;BME280;43499;52.366;12.912;2023-05-10T01:28:28;100807.72;;;10.93;63.08
57668;BME280;43499;52.366;12.912;2023-05-10T01:29:59;100784.25;;;10.85;63.00
57668;BME280;43499;52.366;12.912;2023-05-10T01:31:39;100799.84;;;10.93;63.04
57668;BME280;43499;52.366;12.912;2023-05-10T01:34:02;100795.56;;;10.84;62.62
57668;BME280;43499;52.366;12.912;2023-05-10T01:35:10;100797.94;;;10.80;63.57
57668;BME280;43499;52.366;12.912;2023-05-10T01:36:31;100799.66;;;10.80;62.98
57668;BME280;43499;52.366;12.912;2023-05-10T01:37:46;100788.78;;;10.75;63.54
57668;BME280;43499;52.366;12.912;2023-05-10T01:40:17;100794.81;;;10.74;63.56
57668;BME280;43499;52.366;12.912;2023-05-10T01:41:31;100792.03;;;10.73;64.16
57668;BME280;43499;52.366;12.912;2023-05-10T01:42:47;100789.03;;;10.68;64.24
57668;BME280;43499;52.366;12.912;2023-05-10T01:44:27;100790.47;;;10.75;64.10
57668;BME280;43499;52.366;12.912;2023-05-10T01:46:10;100788.50;;;10.72;63.56
57668;BME280;43499;52.366;12.912;2023-05-10T01:47:14;100773.84;;;10.64;62.80
57668;BME280;43499;52.366;12.912;2023-05-10T01:48:17;100778.53;;;10.68;63.15
57668;BME280;43499;52.366;12.912;2023-05-10T01:49:24;100777.47;;;10.66;63.94
57668;BME280;43499;52.366;12.912;2023-05-10T01:50:29;100793.78;;;10.72;64.65
57668;BME280;43499;52.366;12.912;2023-05-10T01:51:36;100780.69;;;10.62;63.83
57668;BME280;43499;52.366;12.912;2023-05-10T01:52:44;100776.06;;;10.59;64.80
57668;BME280;43499;52.366;12.912;2023-05-10T01:53:49;100778.94;;;10.62;64.46
57668;BME280;43499;52.366;12.912;2023-05-10T01:54:55;100787.88;;;10.64;63.33
57668;BME280;43499;52.366;12.912;2023-05-10T01:55:59;100776.09;;;10.49;63.75
57668;BME280;43499;52.366;12.912;2023-05-10T01:57:06;100785.66;;;10.59;63.96
57668;BME280;43499;52.366;12.912;2023-05-10T01:58:13;100760.09;;;10.46;64.13
57668;BME280;43499;52.366;12.912;2023-05-10T01:59:18;100784.78;;;10.58;63.92
57668;BME280;43499;52.366;12.912;2023-05-10T02:00:20;100750.91;;;10.41;64.39
57668;BME280;43499;52.366;12.912;2023-05-10T02:01:21;100776.38;;;10.52;64.62
57668;BME280;43499;52.366;12.912;2023-05-10T02:02:24;100778.47;;;10.56;64.50
57668;BME280;43499;52.366;12.912;2023-05-10T02:03:26;100766.53;;;10.49;64.23
57668;BME280;43499;52.366;12.912;2023-05-10T02:04:29;100775.69;;;10.55;64.34
57668;BME280;43499;52.366;12.912;2023-05-10T02:05:32;100782.66;;;10.54;63.58
57668;BME280;43499;52.366;12.912;2023-05-10T02:06:34;100770.06;;;10.50;64.64
57668;BME280;43499;52.366;12.912;2023-05-10T02:07:36;100778.50;;;10.46;64.51
57668;BME280;43499;52.366;12.912;2023-05-10T02:08:38;100774.03;;;10.45;64.11
57668;BME280;43499;52.366;12.912;2023-05-10T02:09:42;100764.72;;;10.38;64.08
57668;BME280;43499;52.366;12.912;2023-05-10T02:10:46;100759.69;;;10.41;64.43
57668;BME280;43499;52.366;12.912;2023-05-10T02:11:48;100757.06;;;10.41;64.74
57668;BME280;43499;52.366;12.912;2023-05-10T02:12:50;100761.44;;;10.41;65.16
57668;BME280;43499;52.366;12.912;2023-05-10T02:13:54;100772.84;;;10.41;64.98
57668;BME280;43499;52.366;12.912;2023-05-10T02:15:02;100771.03;;;10.40;65.13
57668;BME280;43499;52.366;12.912;2023-05-10T02:16:04;100782.72;;;10.44;65.50
57668;BME280;43499;52.366;12.912;2023-05-10T02:17:07;100766.28;;;10.36;65.97
57668;BME280;43499;52.366;12.912;2023-05-10T02:18:10;100768.91;;;10.36;65.30
57668;BME280;43499;52.366;12.912;2023-05-10T02:19:13;100762.22;;;10.29;65.76
57668;BME280;43499;52.366;12.912;2023-05-10T02:20:16;100752.78;;;10.21;65.84
57668;BME280;43499;52.366;12.912;2023-05-10T02:21:19;100767.09;;;10.25;65.70
57668;BME280;43499;52.366;12.912;2023-05-10T02:22:21;100758.03;;;10.21;65.03
57668;BME280;43499;52.366;12.912;2023-05-10T02:23:23;100769.84;;;10.26;65.23
57668;BME280;43499;52.366;12.912;2023-05-10T02:24:25;100763.00;;;10.28;66.20
57668;BME280;43499;52.366;12.912;2023-05-10T02:25:26;100778.25;;;10.32;66.91
57668;BME280;43499;52.366;12.912;2023-05-10T02:26:28;100773.78;;;10.31;65.79
57668;BME280;43499;52.366;12.912;2023-05-10T02:27:30;100768.38;;;10.30;65.50
57668;BME280;43499;52.366;12.912;2023-05-10T02:28:32;100770.88;;;10.28;65.61
57668;BME280;43499;52.366;12.912;2023-05-10T02:29:34;100741.25;;;10.09;66.10
57668;BME280;43499;52.366;12.912;2023-05-10T02:30:37;100771.56;;;10.26;66.71
57668;BME280;43499;52.366;12.912;2023-05-10T02:31:38;100772.22;;;10.23;66.22
57668;BME280;43499;52.366;12.912;2023-05-10T02:32:40;100747.56;;;10.11;65.74
57668;BME280;43499;52.366;12.912;2023-05-10T02:33:43;100768.66;;;10.23;65.49
57668;BME280;43499;52.366;12.912;2023-05-10T02:34:46;100771.19;;;10.21;66.49
57668;BME280;43499;52.366;12.912;2023-05-10T02:35:52;100761.88;;;10.14;67.03
57668;BME280;43499;52.366;12.912;2023-05-10T02:36:54;100765.91;;;10.21;66.18
57668;BME280;43499;52.366;12.912;2023-05-10T02:37:58;100750.03;;;10.09;66.50
57668;BME280;43499;52.366;12.912;2023-05-10T02:39:00;100762.78;;;10.15;66.48
57668;BME280;43499;52.366;12.912;2023-05-10T02:40:03;100749.00;;;10.07;66.80
57668;BME280;43499;52.366;12.912;2023-05-10T02:41:06;100750.06;;;9.99;66.44
57668;BME280;43499;52.366;12.912;2023-05-10T02:42:11;100767.13;;;10.14;66.58
57668;BME280;43499;52.366;12.912;2023-05-10T02:43:15;100751.78;;;10.09;66.98
57668;BME280;43499;52.366;12.912;2023-05-10T02:44:18;100761.72;;;10.13;67.91
57668;BME280;43499;52.366;12.912;2023-05-10T02:45:24;100768.03;;;10.15;66.79
57668;BME280;43499;52.366;12.912;2023-05-10T02:46:26;100770.53;;;10.13;65.70
57668;BME280;43499;52.366;12.912;2023-05-10T02:47:30;100746.00;;;10.02;67.00
57668;BME280;43499;52.366;12.912;2023-05-10T02:48:32;100749.53;;;10.03;67.31
57668;BME280;43499;52.366;12.912;2023-05-10T02:49:33;100751.38;;;10.04;66.82
57668;BME280;43499;52.366;12.912;2023-05-10T02:50:36;100754.00;;;10.04;66.63
57668;BME280;43499;52.366;12.912;2023-05-10T02:51:41;100762.69;;;10.03;66.58
57668;BME280;43499;52.366;12.912;2023-05-10T02:52:47;100764.75;;;10.07;66.67
57668;BME280;43499;52.366;12.912;2023-05-10T02:53:49;100763.72;;;10.05;67.17
57668;BME280;43499;52.366;12.912;2023-05-10T02:54:54;100754.53;;;10.00;66.62
57668;BME280;43499;52.366;12.912;2023-05-10T02:55:59;100749.69;;;9.94;67.01
57668;BME280;43499;52.366;12.912;2023-05-10T02:57:04;100760.56;;;9.99;67.01
57668;BME280;43499;52.366;12.912;2023-05-10T02:58:06;100746.16;;;9.94;67.93
57668;BME280;43499;52.366;12.912;2023-05-10T02:59:07;100740.78;;;9.82;67.00
57668;BME280;43499;52.366;12.912;2023-05-10T03:00:08;100747.84;;;9.93;67.15
57668;BME280;43499;52.366;12.912;2023-05-10T03:01:09;100755.06;;;9.96;67.21
57668;BME280;43499;52.366;12.912;2023-05-10T03:02:12;100749.31;;;9.90;67.27
57668;BME280;43499;52.366;12.912;2023-05-10T03:03:13;100762.94;;;9.96;67.30
57668;BME280;43499;52.366;12.912;2023-05-10T03:04:14;100756.13;;;9.87;66.84
57668;BME280;43499;52.366;12.912;2023-05-10T03:05:15;100755.88;;;9.95;67.30
57668;BME280;43499;52.366;12.912;2023-05-10T03:06:16;100749.81;;;9.96;67.37
57668;BME280;43499;52.366;12.912;2023-05-10T03:07:18;100741.31;;;9.88;67.82
57668;BME280;43499;52.366;12.912;2023-05-10T03:08:22;100736.97;;;9.88;68.31
57668;BME280;43499;52.366;12.912;2023-05-10T03:09:25;100750.22;;;9.90;68.63
57668;BME280;43499;52.366;12.912;2023-05-10T03:10:29;100748.41;;;9.89;67.74
57668;BME280;43499;52.366;12.912;2023-05-10T03:11:47;100747.59;;;9.90;68.04
57668;BME280;43499;52.366;12.912;2023-05-10T03:14:13;100749.31;;;9.90;66.57
57668;BME280;43499;52.366;12.912;2023-05-10T03:16:46;100746.56;;;9.88;67.64
57668;BME280;43499;52.366;12.912;2023-05-10T03:18:02;100745.78;;;9.89;68.47
57668;BME280;43499;52.366;12.912;2023-05-10T03:19:16;100752.84;;;9.90;67.83
57668;BME280;43499;52.366;12.912;2023-05-10T03:20:29;100738.16;;;9.82;68.29
57668;BME280;43499;52.366;12.912;2023-05-10T03:21:31;100748.91;;;9.85;67.57
57668;BME280;43499;52.366;12.912;2023-05-10T03:22:38;100723.34;;;9.72;67.65
57668;BME280;43499;52.366;12.912;2023-05-10T03:23:46;100749.81;;;9.85;67.00
57668;BME280;43499;52.366;12.912;2023-05-10T03:24:48;100738.69;;;9.78;67.11
57668;BME280;43499;52.366;12.912;2023-05-10T03:25:50;100746.28;;;9.85;67.82
57668;BME280;43499;52.366;12.912;2023-05-10T03:26:54;100729.38;;;9.71;68.29
57668;BME280;43499;52.366;12.912;2023-05-10T03:27:57;100743.97;;;9.78;68.27
57668;BME280;43499;52.366;12.912;2023-05-10T03:29:00;100734.88;;;9.74;68.97
57668;BME280;43499;52.366;12.912;2023-05-10T03:30:02;100736.97;;;9.78;69.03
57668;BME280;43499;52.366;12.912;2023-05-10T03:31:06;100740.50;;;9.79;67.82
57668;BME280;43499;52.366;12.912;2023-05-10T03:32:08;100740.78;;;9.82;67.71
57668;BME280;43499;52.366;12.912;2023-05-10T03:33:09;100728.31;;;9.79;69.07
57668;BME280;43499;52.366;12.912;2023-05-10T03:34:14;100741.72;;;9.82;68.04
57668;BME280;43499;52.366;12.912;2023-05-10T03:35:16;100738.16;;;9.82;68.65
57668;BME280;43499;52.366;12.912;2023-05-10T03:36:18;100742.63;;;9.83;68.02
57668;BME280;43499;52.366;12.912;2023-05-10T03:37:19;100743.00;;;9.77;67.46
57668;BME280;43499;52.366;12.912;2023-05-10T03:38:20;100742.34;;;9.80;67.75
57668;BME280;43499;52.366;12.912;2023-05-10T03:39:21;100744.56;;;9.85;68.15
57668;BME280;43499;52.366;12.912;2023-05-10T03:40:26;100740.09;;;9.84;67.79
57668;BME280;43499;52.366;12.912;2023-05-10T03:41:29;100727.00;;;9.74;67.96
57668;BME280;43499;52.366;12.912;2023-05-10T03:42:30;100724.38;;;9.74;67.94
57668;BME280;43499;52.366;12.912;2023-05-10T03:43:32;100709.69;;;9.66;67.73
57668;BME280;43499;52.366;12.912;2023-05-10T03:44:32;100732.41;;;9.76;67.96
57668;BME280;43499;52.366;12.912;2023-05-10T03:45:34;100725.44;;;9.76;68.03
57668;BME280;43499;52.366;12.912;2023-05-10T03:46:35;100738.31;;;9.83;67.98
57668;BME280;43499;52.366;12.912;2023-05-10T03:47:37;100736.72;;;9.75;68.17
57668;BME280;43499;52.366;12.912;2023-05-10T03:48:38;100727.53;;;9.80;67.30
57668;BME280;43499;52.366;12.912;2023-05-10T03:49:39;100734.47;;;9.80;67.46
57668;BME280;43499;52.366;12.912;2023-05-10T03:50:40;100740.09;;;9.84;68.72
57668;BME280;43499;52.366;12.912;2023-05-10T03:51:41;100730.81;;;9.78;67.40
57668;BME280;43499;52.366;12.912;2023-05-10T03:52:42;100729.78;;;9.76;67.06
57668;BME280;43499;52.366;12.912;2023-05-10T03:53:44;100729.91;;;9.77;67.21
57668;BME280;43499;52.366;12.912;2023-05-10T03:54:45;100741.03;;;9.85;67.63
57668;BME280;43499;52.366;12.912;2023-05-10T03:55:46;100735.69;;;9.83;67.64
57668;BME280;43499;52.366;12.912;2023-05-10T03:56:47;100718.59;;;9.78;68.13
57668;BME280;43499;52.366;12.912;2023-05-10T03:57:52;100743.16;;;9.89;68.31
57668;BME280;43499;52.366;12.912;2023-05-10T03:58:56;100731.22;;;9.82;68.04
57668;BME280;43499;52.366;12.912;2023-05-10T03:59:57;100722.66;;;9.85;68.63
57668;BME280;43499;52.366;12.912;2023-05-10T04:00:59;100722.41;;;9.82;68.36
57668;BME280;43499;52.366;12.912;2023-05-10T04:02:00;100726.47;;;9.78;67.67
57668;BME280;43499;52.366;12.912;2023-05-10T04:03:01;100738.69;;;9.88;67.27
57668;BME280;43499;52.366;12.912;2023-05-10T04:04:02;100709.81;;;9.78;67.90
57668;BME280;43499;52.366;12.912;2023-05-10T04:05:05;100738.81;;;9.90;68.81
57668;BME280;43499;52.366;12.912;2023-05-10T04:06:07;100720.72;;;9.82;67.77
57668;BME280;43499;52.366;12.912;2023-05-10T04:07:09;100742.47;;;9.92;67.85
57668;BME280;43499;52.366;12.912;2023-05-10T04:08:11;100734.72;;;9.93;68.17
57668;BME280;43499;52.366;12.912;2023-05-10T04:09:12;100730.53;;;9.95;67.89
57668;BME280;43499;52.366;12.912;2023-05-10T04:10:13;100734.31;;;9.99;68.03
57668;BME280;43499;52.366;12.912;2023-05-10T04:11:14;100733.41;;;9.98;67.58
57668;BME280;43499;52.366;12.912;2023-05-10T04:12:15;100724.78;;;9.89;67.63
57668;BME280;43499;52.366;12.912;2023-05-10T04:13:17;100744.16;;;10.01;66.97
57668;BME280;43499;52.366;12.912;2023-05-10T04:14:18;100720.09;;;10.07;67.57
57668;BME280;43499;52.366;12.912;2023-05-10T04:15:19;100738.22;;;10.14;68.32
57668;BME280;43499;52.366;12.912;2023-05-10T04:16:20;100732.78;;;10.33;66.62
57668;BME280;43499;52.366;12.912;2023-05-10T04:17:21;100737.63;;;10.49;66.71
57668;BME280;43499;52.366;12.912;2023-05-10T04:18:22;100720.63;;;10.56;65.96
57668;BME280;43499;52.366;12.912;2023-05-10T04:19:23;100731.72;;;10.74;66.07
57668;BME280;43499;52.366;12.912;2023-05-10T04:20:24;100745.22;;;11.01;66.05
57668;BME280;43499;52.366;12.912;2023-05-10T04:21:25;100742.84;;;11.04;64.72
57668;BME280;43499;52.366;12.912;2023-05-10T04:22:26;100735.69;;;11.14;64.74
57668;BME280;43499;52.366;12.912;2023-05-10T04:23:28;100731.56;;;11.17;65.14
57668;BME280;43499;52.366;12.912;2023-05-10T04:24:29;100720.47;;;11.09;65.85
57668;BME280;43499;52.366;12.912;2023-05-10T04:25:30;100733.47;;;11.08;66.13
57668;BME280;43499;52.366;12.912;2023-05-10T04:26:34;100724.28;;;11.25;66.20
57668;BME280;43499;52.366;12.912;2023-05-10T04:27:35;100723.13;;;11.21;66.31
57668;BME280;43499;52.366;12.912;2023-05-10T04:28:36;100714.69;;;11.25;65.45
57668;BME280;43499;52.366;12.912;2023-05-10T04:29:37;100726.38;;;11.29;64.37
57668;BME280;43499;52.366;12.912;2023-05-10T04:30:39;100732.78;;;11.33;64.84
57668;BME280;43499;52.366;12.912;2023-05-10T04:31:40;100725.72;;;11.44;65.44
57668;BME280;43499;52.366;12.912;2023-05-10T04:32:41;100708.13;;;11.20;63.84
57668;BME280;43499;52.366;12.912;2023-05-10T04:33:42;100726.47;;;11.31;63.08
57668;BME280;43499;52.366;12.912;2023-05-10T04:34:43;100726.81;;;11.35;63.52
57668;BME280;43499;52.366;12.912;2023-05-10T04:35:44;100698.59;;;11.45;63.61
57668;BME280;43499;52.366;12.912;2023-05-10T04:36:45;100717.91;;;11.67;62.07
57668;BME280;43499;52.366;12.912;2023-05-10T04:37:46;100694.81;;;11.41;63.91
57668;BME280;43499;52.366;12.912;2023-05-10T04:38:47;100712.03;;;11.71;63.44
57668;BME280;43499;52.366;12.912;2023-05-10T04:39:48;100703.13;;;11.93;61.34
57668;BME280;43499;52.366;12.912;2023-05-10T04:40:50;100708.16;;;11.78;61.05
57668;BME280;43499;52.366;12.912;2023-05-10T04:41:51;100713.44;;;11.78;63.13
57668;BME280;43499;52.366;12.912;2023-05-10T04:42:52;100715.38;;;11.81;61.10
57668;BME280;43499;52.366;12.912;2023-05-10T04:43:53;100709.88;;;11.89;61.59
57668;BME280;43499;52.366;12.912;2023-05-10T04:44:54;100710.22;;;11.82;60.86
57668;BME280;43499;52.366;12.912;2023-05-10T04:45:56;100708.63;;;11.72;62.85
57668;BME280;43499;52.366;12.912;2023-05-10T04:46:57;100710.13;;;11.93;63.26
57668;BME280;43499;52.366;12.912;2023-05-10T04:47:58;100716.69;;;12.22;62.96
57668;BME280;43499;52.366;12.912;2023-05-10T04:48:59;100690.00;;;12.05;61.44
57668;BME280;43499;52.366;12.912;2023-05-10T04:50:01;100706.94;;;12.21;61.92
57668;BME280;43499;52.366;12.912;2023-05-10T04:51:02;100677.38;;;12.37;59.31
57668;BME280;43499;52.366;12.912;2023-05-10T04:52:04;100688.88;;;12.62;58.81
57668;BME280;43499;52.366;12.912;2023-05-10T04:53:05;100688.03;;;12.38;59.77
57668;BME280;43499;52.366;12.912;2023-05-10T04:54:06;100690.47;;;12.23;60.27
57668;BME280;43499;52.366;12.912;2023-05-10T04:55:07;100713.88;;;12.56;58.63
57668;BME280;43499;52.366;12.912;2023-05-10T04:56:10;100662.84;;;12.30;59.86
57668;BME280;43499;52.366;12.912;2023-05-10T04:57:11;100708.19;;;12.49;59.96
57668;BME280;43499;52.366;12.912;2023-05-10T04:58:12;100708.50;;;12.54;59.52
57668;BME280;43499;52.366;12.912;2023-05-10T04:59:13;100712.88;;;12.54;58.46
57668;BME280;43499;52.366;12.912;2023-05-10T05:00:14;100713.78;;;12.54;60.72
57668;BME280;43499;52.366;12.912;2023-05-10T05:01:15;100696.84;;;12.39;59.69
57668;BME280;43499;52.366;12.912;2023-05-10T05:02:16;100716.44;;;12.54;60.40
57668;BME280;43499;52.366;12.912;2023-05-10T05:03:17;100704.28;;;12.56;59.18
57668;BME280;43499;52.366;12.912;2023-05-10T05:04:18;100716.38;;;12.66;59.66
57668;BME280;43499;52.366;12.912;2023-05-10T05:05:19;100710.38;;;12.80;58.47
57668;BME280;43499;52.366;12.912;2023-05-10T05:06:20;100695.59;;;12.83;60.71
57668;BME280;43499;52.366;12.912;2023-05-10T05:07:21;100704.28;;;12.93;60.70
57668;BME280;43499;52.366;12.912;2023-05-10T05:08:23;100702.78;;;12.60;59.38
57668;BME280;43499;52.366;12.912;2023-05-10T05:09:24;100702.53;;;12.69;59.31
57668;BME280;43499;52.366;12.912;2023-05-10T05:10:25;100716.69;;;12.83;60.23
57668;BME280;43499;52.366;12.912;2023-05-10T05:11:26;100716.94;;;12.74;58.02
57668;BME280;43499;52.366;12.912;2023-05-10T05:12:27;100697.34;;;12.82;59.70
57668;BME280;43499;52.366;12.912;2023-05-10T05:13:28;100697.03;;;13.03;59.53
57668;BME280;43499;52.366;12.912;2023-05-10T05:14:29;100689.84;;;12.88;58.74
57668;BME280;43499;52.366;12.912;2023-05-10T05:15:30;100716.56;;;12.93;58.95
57668;BME280;43499;52.366;12.912;2023-05-10T05:16:31;100715.03;;;12.96;59.37
57668;BME280;43499;52.366;12.912;2023-05-10T05:17:33;100697.59;;;12.73;58.81
57668;BME280;43499;52.366;12.912;2023-05-10T05:18:34;100716.75;;;12.71;58.20
57668;BME280;43499;52.366;12.912;2023-05-10T05:19:35;100711.50;;;12.96;58.20
57668;BME280;43499;52.366;12.912;2023-05-10T05:20:36;100718.50;;;13.21;58.26
57668;BME280;43499;52.366;12.912;2023-05-10T05:21:37;100706.56;;;12.89;56.88
57668;BME280;43499;52.366;12.912;2023-05-10T05:22:38;100719.09;;;12.79;58.32
57668;BME280;43499;52.366;12.912;2023-05-10T05:23:39;100713.53;;;13.00;59.09
57668;BME280;43499;52.366;12.912;2023-05-10T05:24:40;100715.59;;;13.04;57.81
57668;BME280;43499;52.366;12.912;2023-05-10T05:25:41;100698.94;;;13.42;57.64
57668;BME280;43499;52.366;12.912;2023-05-10T05:26:42;100712.13;;;13.42;56.22
57668;BME280;43499;52.366;12.912;2023-05-10T05:27:43;100719.16;;;13.30;56.32
57668;BME280;43499;52.366;12.912;2023-05-10T05:28:44;100719.91;;;13.41;56.14
57668;BME280;43499;52.366;12.912;2023-05-10T05:29:46;100711.91;;;13.39;56.66
57668;BME280;43499;52.366;12.912;2023-05-10T05:30:47;100703.34;;;13.18;57.71
57668;BME280;43499;52.366;12.912;2023-05-10T05:31:48;100716.78;;;13.47;57.49
57668;BME280;43499;52.366;12.912;2023-05-10T05:32:49;100712.50;;;13.87;56.54
57668;BME280;43499;52.366;12.912;2023-05-10T05:33:50;100719.06;;;13.54;56.25